Time;durP1;ratioP1;P1;durP2;ratioP2;P2;SDS_P1;SDS_P2;PMS_P1;PMS_P2;Temp;Humidity;BMP_temperature;BMP_pressure;BME280_temperature;BME280_humidity;BME280_pressure;Samples;Min_cycle;Max_cycle;Signal;HPM_P1;HPM_P2
2022/01/18 00:01:38;;;;;;;6.90;1.40;;;;;;;5.94;100.00;100950.34;5176815;27;20204;-84
2022/01/18 00:04:07;;;;;;;3.67;1.40;;;;;;;5.80;100.00;100941.78;5173931;27;20284;-83
2022/01/18 00:06:39;;;;;;;6.63;1.60;;;;;;;5.94;100.00;100947.72;5176021;27;20197;-84
2022/01/18 00:09:08;;;;;;;7.63;1.60;;;;;;;5.75;100.00;100951.50;5177116;27;20205;-83
2022/01/18 00:11:44;;;;;;;7.10;1.60;;;;;;;5.75;100.00;100951.50;5172676;27;20223;-84
2022/01/18 00:14:24;;;;;;;5.47;1.30;;;;;;;5.76;100.00;100945.34;5092237;28;20305;-84
2022/01/18 00:19:40;;;;;;;5.87;1.50;;;;;;;5.71;100.00;100949.81;5091689;28;20701;-83
2022/01/18 00:22:12;;;;;;;8.53;1.57;;;;;;;5.85;100.00;100955.72;5087938;28;20652;-84
2022/01/18 00:24:42;;;;;;;5.70;1.30;;;;;;;5.86;100.00;100953.94;5086581;28;20192;-83
2022/01/18 00:27:15;;;;;;;6.47;1.20;;;;;;;5.96;100.00;100960.81;5091237;28;20199;-83
2022/01/18 00:29:55;;;;;;;5.10;1.40;;;;;;;5.86;100.00;100957.44;5089330;28;20265;-83
2022/01/18 00:32:34;;;;;;;5.70;1.30;;;;;;;5.88;100.00;100967.94;5130753;27;20199;-83
2022/01/18 00:35:02;;;;;;;5.07;1.40;;;;;;;5.92;100.00;100964.41;5181465;27;20208;-83
2022/01/18 00:37:36;;;;;;;9.70;2.10;;;;;;;5.98;100.00;100969.56;5129738;27;20256;-83
2022/01/18 00:40:07;;;;;;;8.27;1.77;;;;;;;6.10;100.00;100973.78;5177666;27;20699;-83
2022/01/18 00:42:35;;;;;;;4.47;1.17;;;;;;;6.18;100.00;100967.50;5178995;27;20658;-84
2022/01/18 00:45:06;;;;;;;6.70;1.40;;;;;;;6.16;100.00;100971.88;5169972;27;20200;-83
2022/01/18 00:47:34;;;;;;;7.30;1.57;;;;;;;5.97;100.00;100984.47;5171917;27;20181;-83
2022/01/18 00:50:03;;;;;;;4.70;1.20;;;;;;;6.03;100.00;100980.88;5175983;27;20605;-83
2022/01/18 00:52:37;;;;;;;9.33;1.83;;;;;;;6.11;100.00;100979.00;5176172;27;20189;-84
2022/01/18 00:55:06;;;;;;;6.03;1.47;;;;;;;5.96;100.00;100980.09;5170279;27;20262;-84
2022/01/18 00:57:37;;;;;;;6.50;1.60;;;;;;;5.82;100.00;100983.81;5110034;28;20199;-83
2022/01/18 01:00:09;;;;;;;6.70;1.77;;;;;;;5.74;100.00;100992.69;5110326;28;20214;-84
2022/01/18 01:02:37;;;;;;;6.83;1.40;;;;;;;5.75;100.00;100991.78;5114179;28;20191;-84
2022/01/18 01:05:07;;;;;;;4.23;1.37;;;;;;;5.61;100.00;100992.91;5106055;28;20205;-83
2022/01/18 01:07:40;;;;;;;9.60;1.53;;;;;;;5.60;100.00;100984.16;5115096;28;20199;-84
2022/01/18 01:10:29;;;;;;;6.60;1.60;;;;;;;5.60;100.00;100988.53;5115273;28;20248;-83
2022/01/18 01:12:57;;;;;;;5.87;1.43;;;;;;;5.65;100.00;100994.59;5114755;28;20199;-83
2022/01/18 01:15:31;;;;;;;6.93;1.63;;;;;;;5.71;100.00;100986.63;5106656;28;20265;-84
2022/01/18 01:18:13;;;;;;;5.87;1.50;;;;;;;5.69;100.00;100989.28;5103322;28;20194;-83
2022/01/18 01:32:39;;;;;;;5.33;1.27;;;;;;;5.73;100.00;101000.59;5176573;27;20207;-84
2022/01/18 01:35:13;;;;;;;6.37;2.00;;;;;;;5.72;100.00;100998.88;5178056;27;20220;-84
2022/01/18 01:43:22;;;;;;;5.47;1.60;;;;;;;5.89;100.00;101010.00;5134141;27;20201;-83
2022/01/18 01:45:51;;;;;;;6.70;1.50;;;;;;;5.86;100.00;101002.16;5132482;27;20190;-83
2022/01/18 01:48:24;;;;;;;6.10;1.50;;;;;;;5.89;100.00;101007.38;5132741;27;20198;-83
2022/01/18 01:51:03;;;;;;;9.43;1.90;;;;;;;5.69;100.00;101015.56;5047972;28;20197;-83
2022/01/18 01:53:34;;;;;;;6.17;1.50;;;;;;;5.64;100.00;101019.13;5047348;28;20204;-83
2022/01/18 01:56:04;;;;;;;6.27;1.50;;;;;;;5.74;100.00;101016.34;5018673;28;20398;-84
2022/01/18 01:58:35;;;;;;;5.57;1.87;;;;;;;5.77;100.00;101022.44;4986261;28;20195;-83
2022/01/18 02:01:06;;;;;;;5.33;1.60;;;;;;;5.78;100.00;101022.41;5018869;28;20267;-83
2022/01/18 02:03:36;;;;;;;6.93;2.10;;;;;;;5.64;100.00;101020.00;5010687;28;20696;-83
2022/01/18 02:06:08;;;;;;;7.57;1.70;;;;;;;5.73;100.00;101029.53;5012568;28;20230;-83
2022/01/18 02:08:37;;;;;;;9.17;1.83;;;;;;;5.58;100.00;101020.06;5041417;28;20188;-84
2022/01/18 02:11:06;;;;;;;6.73;1.83;;;;;;;5.65;100.00;101024.38;5093127;28;20294;-83
2022/01/18 02:13:34;;;;;;;6.10;1.73;;;;;;;5.67;100.00;101033.09;5087301;28;20203;-84
2022/01/18 02:21:45;;;;;;;7.70;2.00;;;;;;;5.59;100.00;101027.06;5088758;28;20218;-83
2022/01/18 02:22:02;;;;;;;11.43;2.13;;;;;;;5.61;100.00;101024.44;5092301;28;20191;-84
2022/01/18 02:24:30;;;;;;;7.07;2.17;;;;;;;5.52;100.00;101025.44;5090671;28;20207;-83
2022/01/18 02:26:58;;;;;;;9.73;2.00;;;;;;;5.47;100.00;101014.09;5076230;28;20201;-83
2022/01/18 02:29:26;;;;;;;6.50;1.77;;;;;;;5.49;100.00;101019.31;5081712;27;20357;-84
2022/01/18 02:31:55;;;;;;;8.50;2.33;;;;;;;5.56;100.00;101016.59;5078280;27;20207;-83
2022/01/18 02:34:24;;;;;;;6.43;2.10;;;;;;;5.59;100.00;101013.06;5080420;27;20275;-83
2022/01/18 02:36:54;;;;;;;7.83;1.63;;;;;;;5.59;100.00;101013.91;5100871;28;20212;-84
2022/01/18 02:39:26;;;;;;;6.63;1.70;;;;;;;5.68;100.00;101020.81;5111819;27;20274;-83
2022/01/18 02:41:58;;;;;;;6.20;1.60;;;;;;;5.56;100.00;101018.38;5174524;27;20237;-84
2022/01/18 02:44:28;;;;;;;6.73;1.70;;;;;;;5.56;100.00;101018.38;5170718;27;20268;-84
2022/01/18 02:46:57;;;;;;;3.17;1.10;;;;;;;5.66;100.00;101025.22;5173775;27;20193;-83
2022/01/18 02:49:26;;;;;;;5.17;1.47;;;;;;;5.60;100.00;101035.84;5172898;27;20185;-83
2022/01/18 02:51:55;;;;;;;6.97;1.73;;;;;;;5.74;100.00;101033.88;5174366;27;20317;-83
2022/01/18 02:54:26;;;;;;;6.50;1.40;;;;;;;5.69;100.00;101033.06;5175113;27;20207;-83
2022/01/18 02:56:59;;;;;;;3.87;1.10;;;;;;;5.69;100.00;101026.09;5178054;27;20221;-83
2022/01/18 02:59:33;;;;;;;2.40;1.00;;;;;;;5.61;100.00;101024.44;5171000;27;20662;-83
2022/01/18 03:05:03;;;;;;;2.07;1.03;;;;;;;5.52;100.00;101022.81;5186727;27;20280;-81
2022/01/18 03:07:32;;;;;;;3.53;1.00;;;;;;;5.64;100.00;101024.41;5196875;27;20193;-81
2022/01/18 03:10:02;;;;;;;6.73;1.30;;;;;;;5.60;100.00;101022.72;5200195;27;20208;-81
2022/01/18 03:12:30;;;;;;;6.97;1.60;;;;;;;5.48;100.00;101028.97;5195381;27;20180;-82
2022/01/18 03:14:59;;;;;;;4.60;1.10;;;;;;;5.43;100.00;101026.41;5200124;27;20189;-82
2022/01/18 03:17:27;;;;;;;3.20;1.07;;;;;;;5.38;100.00;101024.72;5196067;27;20260;-81
2022/01/18 03:19:56;;;;;;;3.30;0.90;;;;;;;5.41;100.00;101024.72;5199890;27;20211;-83
2022/01/18 03:22:25;;;;;;;4.93;1.00;;;;;;;5.36;100.00;101031.75;5181549;27;20219;-84
2022/01/18 03:25:00;;;;;;;3.80;1.10;;;;;;;5.38;100.00;101025.59;5175539;27;20189;-83
2022/01/18 03:30:18;;;;;;;7.87;1.10;;;;;;;5.34;100.00;101025.66;5178243;27;20189;-83
2022/01/18 03:32:46;;;;;;;3.47;1.23;;;;;;;5.43;100.00;101028.19;5168958;27;20185;-83
2022/01/18 03:35:14;;;;;;;4.03;0.80;;;;;;;5.40;100.00;101013.34;5171061;27;20187;-84
2022/01/18 03:37:43;;;;;;;4.97;0.97;;;;;;;5.40;100.00;101010.69;5172633;27;20209;-83
2022/01/18 03:40:12;;;;;;;2.53;0.70;;;;;;;5.47;100.00;101011.47;5175743;27;20236;-83
2022/01/18 03:42:45;;;;;;;2.50;0.80;;;;;;;5.40;100.00;101015.97;5172238;27;20212;-84
2022/01/18 03:45:16;;;;;;;1.63;0.50;;;;;;;5.34;100.00;101010.78;5173282;27;20193;-83
2022/01/18 03:47:46;;;;;;;2.90;0.80;;;;;;;5.26;100.00;101017.88;5166968;27;20647;-83
2022/01/18 03:50:16;;;;;;;1.80;0.60;;;;;;;5.21;100.00;101017.06;5175940;27;20193;-83
2022/01/18 03:52:46;;;;;;;2.33;0.77;;;;;;;5.20;100.00;101011.81;5168073;27;20296;-84
2022/01/18 03:55:17;;;;;;;3.17;0.70;;;;;;;5.21;100.00;101018.81;5173096;27;20610;-84
2022/01/18 03:57:47;;;;;;;2.97;0.70;;;;;;;5.28;100.00;101018.72;5175427;27;20219;-83
2022/01/18 04:00:18;;;;;;;4.33;1.10;;;;;;;5.23;100.00;101019.69;5171642;27;20276;-83
2022/01/18 04:02:47;;;;;;;2.90;0.70;;;;;;;5.29;100.00;101015.19;5166634;27;20201;-83
2022/01/18 04:05:15;;;;;;;3.23;0.73;;;;;;;5.39;100.00;101021.22;5170449;27;20193;-84
2022/01/18 04:07:44;;;;;;;1.53;0.70;;;;;;;5.40;100.00;101025.56;5172794;27;20204;-83
2022/01/18 04:10:13;;;;;;;2.50;0.70;;;;;;;5.36;100.00;101030.00;5168406;27;20204;-84
2022/01/18 04:12:42;;;;;;;5.30;0.70;;;;;;;5.31;100.00;101025.72;5170868;27;20206;-84
2022/01/18 04:15:15;;;;;;;1.63;0.70;;;;;;;5.31;100.00;101031.84;5169905;27;20191;-84
2022/01/18 04:26:03;;;;;;;3.13;0.63;;;;;;;5.62;100.00;101031.44;5179273;27;20201;-83
2022/01/18 04:28:38;;;;;;;2.53;1.00;;;;;;;5.56;100.00;101023.63;5175554;27;20193;-83
2022/01/18 04:31:09;;;;;;;3.80;0.70;;;;;;;5.50;100.00;101032.47;5173840;27;20188;-83
2022/01/18 04:33:39;;;;;;;3.40;1.00;;;;;;;5.35;100.00;101033.53;5174885;27;20185;-83
2022/01/18 04:36:09;;;;;;;4.07;1.00;;;;;;;5.42;100.00;101036.94;5175131;27;20185;-83
2022/01/18 04:38:39;;;;;;;1.80;0.83;;;;;;;5.45;100.00;101039.53;5175700;27;20223;-84
2022/01/18 04:41:12;;;;;;;2.93;0.90;;;;;;;5.41;100.00;101046.59;5178890;27;20208;-83
2022/01/18 04:43:50;;;;;;;2.60;0.80;;;;;;;5.51;100.00;101038.59;5176316;27;20197;-83
2022/01/18 04:49:08;;;;;;;3.40;0.90;;;;;;;5.45;100.00;101042.16;5177967;27;20193;-83
2022/01/18 04:51:36;;;;;;;3.17;0.60;;;;;;;5.49;100.00;101038.59;5175862;27;20201;-84
2022/01/18 04:54:07;;;;;;;3.43;0.90;;;;;;;5.66;100.00;101038.38;5175774;27;20204;-84
2022/01/18 04:59:21;;;;;;;4.97;0.90;;;;;;;5.21;100.00;101047.69;5178476;27;20253;-83
2022/01/18 05:01:51;;;;;;;2.30;0.70;;;;;;;5.16;100.00;101050.41;5175400;27;20206;-83
2022/01/18 05:04:21;;;;;;;3.07;0.77;;;;;;;5.21;100.00;101052.97;5177437;27;20220;-84
2022/01/18 05:06:52;;;;;;;2.43;1.10;;;;;;;5.17;100.00;101058.25;5169075;27;20242;-83
2022/01/18 05:09:21;;;;;;;4.90;1.57;;;;;;;5.17;100.00;101054.75;5175213;27;20193;-83
2022/01/18 05:11:55;;;;;;;2.03;1.30;;;;;;;5.13;100.00;101048.69;5170031;27;20189;-84
2022/01/18 05:14:30;;;;;;;4.90;2.53;;;;;;;5.15;100.00;101049.53;5169508;27;20197;-84
2022/01/18 05:17:12;;;;;;;7.80;3.23;;;;;;;5.23;100.00;101059.94;5172932;27;20672;-84
2022/01/18 05:19:46;;;;;;;5.93;1.90;;;;;;;5.29;100.00;101056.38;5173284;27;20199;-84
2022/01/18 05:25:00;;;;;;;0.90;0.60;;;;;;;5.42;100.00;101058.84;5174159;27;20193;-83
2022/01/18 05:27:28;;;;;;;2.90;0.73;;;;;;;5.35;100.00;101058.94;5175092;27;20193;-84
2022/01/18 05:29:57;;;;;;;3.53;0.87;;;;;;;5.28;100.00;101062.50;5172445;27;20201;-83
2022/01/18 05:32:26;;;;;;;3.57;0.77;;;;;;;5.23;100.00;101066.97;5163593;27;20205;-83
2022/01/18 05:34:56;;;;;;;3.47;0.73;;;;;;;5.21;100.00;101076.59;5177045;27;20662;-83
2022/01/18 05:37:24;;;;;;;2.07;0.77;;;;;;;5.23;100.00;101087.97;5169075;27;20228;-84
2022/01/18 05:39:52;;;;;;;6.33;1.20;;;;;;;5.34;100.00;101088.72;5177628;27;20213;-83
2022/01/18 05:42:21;;;;;;;3.93;1.70;;;;;;;5.39;100.00;101094.78;5169193;27;20368;-84
2022/01/18 05:44:49;;;;;;;6.60;5.93;;;;;;;5.47;100.00;101090.31;5177527;27;20244;-84
2022/01/18 05:47:17;;;;;;;3.13;2.43;;;;;;;5.52;100.00;101091.13;5167923;27;20209;-84
2022/01/18 05:49:47;;;;;;;4.93;2.60;;;;;;;5.30;100.00;101092.25;5174408;27;20193;-84
2022/01/18 05:52:15;;;;;;;3.40;1.77;;;;;;;5.37;100.00;101086.94;5174476;27;20200;-83
2022/01/18 05:54:43;;;;;;;14.57;5.97;;;;;;;5.30;100.00;101087.88;5177517;27;20187;-83
2022/01/18 05:57:13;;;;;;;19.03;7.90;;;;;;;5.31;100.00;101092.28;5174239;27;20229;-83
2022/01/18 05:59:45;;;;;;;10.83;5.00;;;;;;;5.31;100.00;101092.28;5168844;27;20699;-84
2022/01/18 06:02:19;;;;;;;8.43;3.23;;;;;;;5.29;100.00;101095.78;5173613;27;20189;-83
2022/01/18 06:07:35;;;;;;;6.60;2.70;;;;;;;5.17;100.00;101100.28;5176913;27;20206;-83
2022/01/18 06:10:04;;;;;;;7.10;2.70;;;;;;;5.18;100.00;101104.66;5167017;27;20200;-83
2022/01/18 06:12:33;;;;;;;6.83;3.20;;;;;;;5.17;100.00;101107.28;5171515;27;20273;-84
2022/01/18 06:15:02;;;;;;;8.00;3.40;;;;;;;-144.59;100.00;101107.28;5173356;27;20197;-83
2022/01/18 06:17:30;;;;;;;7.70;4.23;;;;;;;5.17;100.00;101118.66;5175741;27;20189;-84
2022/01/18 06:20:01;;;;;;;11.23;4.23;;;;;;;5.19;100.00;101116.03;5166633;27;20201;-84
2022/01/18 06:22:29;;;;;;;6.43;3.77;;;;;;;5.20;100.00;101112.50;5171313;27;20201;-84
2022/01/18 06:24:58;;;;;;;4.07;2.50;;;;;;;5.20;100.00;101111.63;5160665;27;20197;-83
2022/01/18 06:27:26;;;;;;;3.33;1.70;;;;;;;5.13;100.00;101116.09;5176804;27;20651;-84
2022/01/18 06:29:55;;;;;;;4.90;1.67;;;;;;;5.12;100.00;101115.25;5173420;27;20234;-84
2022/01/18 06:32:24;;;;;;;4.73;2.03;;;;;;;5.11;100.00;101121.34;5175972;27;20185;-84
2022/01/18 06:34:52;;;;;;;3.87;1.57;;;;;;;5.09;100.00;101124.88;5136191;27;20197;-84
2022/01/18 06:37:24;;;;;;;3.97;1.70;;;;;;;5.10;100.00;101130.13;5176485;27;20214;-84
2022/01/18 06:39:53;;;;;;;8.43;2.40;;;;;;;5.08;100.00;101134.53;5173330;27;20240;-84
2022/01/18 06:42:22;;;;;;;3.97;2.00;;;;;;;5.11;100.00;101126.59;5169579;27;20208;-84
2022/01/18 06:44:50;;;;;;;4.47;1.80;;;;;;;5.06;100.00;101131.03;5170343;27;20231;-83
2022/01/18 06:47:18;;;;;;;4.07;1.90;;;;;;;5.03;100.00;101136.34;5169279;27;20205;-83
2022/01/18 06:49:47;;;;;;;4.13;1.90;;;;;;;4.99;100.00;101139.00;5176456;27;20212;-84
2022/01/18 06:52:15;;;;;;;6.17;1.90;;;;;;;4.94;100.00;101136.41;5168891;27;20214;-83
2022/01/18 06:54:45;;;;;;;6.17;1.93;;;;;;;4.88;100.00;101139.09;5176706;27;20189;-83
2022/01/18 06:57:15;;;;;;;5.80;1.80;;;;;;;4.91;100.00;101140.81;5170937;27;20193;-84
2022/01/18 06:59:43;;;;;;;4.53;2.07;;;;;;;4.88;100.00;101141.72;5172979;27;20262;-83
2022/01/18 07:02:12;;;;;;;6.93;2.40;;;;;;;4.83;100.00;101140.91;5165300;27;20205;-84
2022/01/18 07:04:40;;;;;;;6.30;2.63;;;;;;;4.86;100.00;101152.25;5167456;27;20224;-84
2022/01/18 07:07:08;;;;;;;8.07;3.00;;;;;;;4.86;100.00;101152.25;5168495;27;20200;-84
2022/01/18 07:09:37;;;;;;;8.37;3.30;;;;;;;5.04;100.00;101152.97;5120646;27;20216;-84
2022/01/18 07:12:11;;;;;;;12.97;5.53;;;;;;;4.95;100.00;101151.28;5170252;27;20189;-84
2022/01/18 07:14:40;;;;;;;8.40;3.67;;;;;;;4.98;100.00;101155.63;5170753;27;20196;-83
2022/01/18 07:17:08;;;;;;;7.97;3.83;;;;;;;4.98;100.00;101150.38;5174854;27;20229;-84
2022/01/18 07:19:37;;;;;;;9.50;5.13;;;;;;;5.00;100.00;101159.09;5170540;27;20208;-84
2022/01/18 07:22:07;;;;;;;11.53;4.73;;;;;;;4.90;100.00;101166.19;5176079;27;20185;-84
2022/01/18 07:24:41;;;;;;;8.03;4.27;;;;;;;4.82;100.00;101155.75;5173721;27;20189;-83
2022/01/18 07:27:12;;;;;;;6.90;3.73;;;;;;;4.87;100.00;101168.84;5171877;27;20315;-84
2022/01/18 07:29:42;;;;;;;4.93;2.20;;;;;;;4.77;100.00;101168.06;5172668;27;20197;-84
2022/01/18 07:32:12;;;;;;;4.87;2.00;;;;;;;4.60;100.00;101167.31;5171463;27;20197;-84
2022/01/18 07:34:49;;;;;;;4.40;2.20;;;;;;;4.65;100.00;101170.78;5156750;27;20220;-84
2022/01/18 07:37:18;;;;;;;6.23;2.50;;;;;;;4.75;100.00;101168.97;5174362;27;20707;-84
2022/01/18 07:39:49;;;;;;;5.23;2.40;;;;;;;4.93;100.00;101168.81;5164643;27;20303;-84
2022/01/18 07:42:20;;;;;;;6.20;2.10;;;;;;;4.74;100.00;101170.72;5170215;27;20244;-84
2022/01/18 07:44:48;;;;;;;6.80;2.07;;;;;;;4.91;100.00;101173.19;5175622;27;20206;-84
2022/01/18 07:47:16;;;;;;;6.23;1.93;;;;;;;4.94;100.00;101177.56;5170242;27;20199;-83
2022/01/18 07:49:45;;;;;;;6.83;2.30;;;;;;;4.92;100.00;101188.06;5175783;27;20283;-83
2022/01/18 07:52:15;;;;;;;6.53;2.57;;;;;;;4.87;100.00;101190.72;5136289;27;20359;-84
2022/01/18 07:54:43;;;;;;;6.07;2.37;;;;;;;4.54;100.00;101202.38;5168874;27;20192;-84
2022/01/18 07:57:14;;;;;;;8.07;2.17;;;;;;;4.69;100.00;101197.88;5172872;27;20220;-83
2022/01/18 07:59:44;;;;;;;6.13;2.10;;;;;;;4.79;100.00;101200.41;5171851;27;20218;-84
2022/01/18 08:02:12;;;;;;;5.57;2.10;;;;;;;4.87;100.00;101206.50;5175306;27;20197;-83
2022/01/18 08:04:40;;;;;;;7.20;2.00;;;;;;;4.80;100.00;101210.03;5175525;27;20279;-83
2022/01/18 08:07:08;;;;;;;4.57;2.03;;;;;;;4.81;100.00;101206.53;5176603;27;20193;-84
2022/01/18 08:09:37;;;;;;;6.67;2.07;;;;;;;4.86;100.00;101210.00;5171105;27;20196;-84
2022/01/18 08:12:06;;;;;;;7.17;2.37;;;;;;;4.86;100.00;101210.00;5172286;27;20189;-83
2022/01/18 08:14:35;;;;;;;6.37;2.40;;;;;;;4.86;100.00;101210.00;5175208;27;20189;-83
2022/01/18 08:17:05;;;;;;;4.53;2.03;;;;;;;4.99;100.00;101205.50;5170465;27;20200;-83
2022/01/18 08:19:36;;;;;;;7.80;2.00;;;;;;;5.03;100.00;101211.63;5179176;27;20220;-83
2022/01/18 08:22:09;;;;;;;6.50;1.93;;;;;;;5.10;100.00;101208.03;5174587;27;20651;-83
2022/01/18 08:24:38;;;;;;;5.07;2.03;;;;;;;5.22;100.00;101202.72;5179749;27;20204;-83
2022/01/18 08:27:06;;;;;;;6.97;2.00;;;;;;;5.31;100.00;101207.88;5174804;27;20193;-84
2022/01/18 08:29:34;;;;;;;6.53;2.50;;;;;;;5.48;100.00;101207.69;5172773;27;20189;-84
2022/01/18 08:32:22;;;;;;;5.60;2.27;;;;;;;5.44;100.00;101211.25;5178763;27;20822;-83
2022/01/18 08:34:50;;;;;;;5.93;2.10;;;;;;;5.51;100.00;101204.19;5176016;27;20196;-83
2022/01/18 08:37:19;;;;;;;4.03;2.13;;;;;;;5.49;100.00;101200.69;5176214;27;20185;-82
2022/01/18 08:39:47;;;;;;;8.90;3.33;;;;;;;5.61;100.00;101196.19;5178603;27;20225;-83
2022/01/18 08:42:15;;;;;;;10.00;3.37;;;;;;;5.58;100.00;101183.03;5175049;27;20189;-84
2022/01/18 08:44:44;;;;;;;11.67;3.63;;;;;;;5.58;100.00;101183.03;5173102;27;20205;-83
2022/01/18 08:47:13;;;;;;;10.67;3.43;;;;;;;5.70;100.00;101200.47;5177568;27;20862;-84
2022/01/18 08:49:43;;;;;;;10.60;4.63;;;;;;;5.80;100.00;101203.88;5174820;27;20185;-83
2022/01/18 08:52:11;;;;;;;11.80;4.10;;;;;;;5.79;100.00;101210.88;5174511;27;20189;-83
2022/01/18 08:54:42;;;;;;;12.73;4.47;;;;;;;5.83;100.00;101212.56;5169463;27;20185;-84
2022/01/18 08:57:11;;;;;;;12.30;3.73;;;;;;;5.84;100.00;101211.69;5175925;27;20205;-83
2022/01/18 08:59:40;;;;;;;14.10;3.93;;;;;;;5.97;100.00;101209.81;5171842;27;20217;-83
2022/01/18 09:02:10;;;;;;;8.17;3.80;;;;;;;5.90;100.00;101209.03;5170285;27;20196;-83
2022/01/18 09:04:39;;;;;;;8.47;3.87;;;;;;;5.90;100.00;101209.03;5168496;27;20667;-83
2022/01/18 09:07:11;;;;;;;8.97;3.90;;;;;;;5.98;100.00;101215.06;5175320;27;20284;-84
2022/01/18 09:09:41;;;;;;;11.47;4.30;;;;;;;6.12;100.00;101220.16;5179208;27;20193;-83
2022/01/18 09:12:13;;;;;;;9.10;3.57;;;;;;;6.11;100.00;101225.44;5170539;27;20216;-83
2022/01/18 09:14:41;;;;;;;8.60;3.47;;;;;;;6.03;100.00;101217.63;5174120;27;20224;-83
2022/01/18 09:17:10;;;;;;;6.70;3.43;;;;;;;6.10;100.00;101227.19;5171956;27;20191;-83
2022/01/18 09:19:38;;;;;;;9.50;3.83;;;;;;;6.12;100.00;101222.78;5171530;27;20214;-83
2022/01/18 09:22:07;;;;;;;11.33;3.60;;;;;;;6.12;100.00;101227.19;5171884;27;20196;-83
2022/01/18 09:24:37;;;;;;;13.60;5.07;;;;;;;5.98;100.00;101222.06;5168130;27;20267;-83
2022/01/18 09:27:05;;;;;;;15.10;4.43;;;;;;;6.03;100.00;101220.25;5174191;27;20204;-83
2022/01/18 09:29:34;;;;;;;12.47;5.50;;;;;;;6.05;100.00;101231.63;5175164;27;20196;-83
2022/01/18 09:32:04;;;;;;;9.73;3.80;;;;;;;6.07;100.00;101237.75;5177219;27;20200;-83
2022/01/18 09:34:32;;;;;;;9.27;3.67;;;;;;;6.11;100.00;101228.06;5170154;27;20193;-84
2022/01/18 09:37:01;;;;;;;8.93;3.67;;;;;;;6.17;100.00;101238.50;5173945;27;20185;-84
2022/01/18 09:39:29;;;;;;;11.07;4.20;;;;;;;6.15;100.00;101235.03;5179202;27;20225;-84
2022/01/18 09:42:02;;;;;;;9.87;3.40;;;;;;;6.27;100.00;101234.84;5175509;27;20208;-84
2022/01/18 09:44:30;;;;;;;13.00;4.23;;;;;;;6.20;100.00;101236.72;5177998;27;20647;-83
2022/01/18 09:46:59;;;;;;;9.20;3.40;;;;;;;6.26;100.00;101248.91;5174290;27;20205;-84
2022/01/18 09:49:27;;;;;;;13.97;3.70;;;;;;;6.35;100.00;101240.91;5178187;27;20197;-84
2022/01/18 09:51:55;;;;;;;9.40;3.77;;;;;;;6.48;100.00;101250.41;5172414;27;20222;-84
2022/01/18 09:54:25;;;;;;;9.03;3.73;;;;;;;6.45;100.00;101246.91;5177606;27;20230;-84
2022/01/18 09:56:53;;;;;;;8.70;3.60;;;;;;;6.45;100.00;101246.91;5171224;27;20200;-83
2022/01/18 09:59:23;;;;;;;11.70;3.83;;;;;;;6.59;100.00;101248.47;5177838;27;20200;-84
2022/01/18 10:01:53;;;;;;;8.73;3.57;;;;;;;6.55;100.00;101249.38;5168511;27;20201;-84
2022/01/18 10:04:24;;;;;;;8.47;3.47;;;;;;;6.55;100.00;101246.75;5174138;27;20214;-84
2022/01/18 10:06:55;;;;;;;8.73;3.30;;;;;;;6.58;100.00;101249.38;5177923;27;20185;-84
2022/01/18 10:09:28;;;;;;;8.27;3.47;;;;;;;6.70;100.00;101239.56;5172278;27;20284;-83
2022/01/18 10:12:10;;;;;;;7.47;3.83;;;;;;;6.65;100.00;101241.38;5171916;27;20201;-83
2022/01/18 10:14:43;;;;;;;11.03;4.20;;;;;;;6.70;100.00;101243.06;5154449;27;20201;-84
2022/01/18 10:17:12;;;;;;;10.00;3.20;;;;;;;6.74;100.00;101242.09;5171796;27;20193;-83
2022/01/18 10:19:51;;;;;;;8.83;3.07;;;;;;;6.83;100.00;101244.59;5177381;27;20291;-83
2022/01/18 10:22:28;;;;;;;5.63;2.13;;;;;;;6.89;100.00;101246.28;5169697;27;20359;-83
2022/01/18 10:24:56;;;;;;;4.73;2.10;;;;;;;7.04;100.00;101246.03;5171253;27;20204;-84
2022/01/18 10:27:36;;;;;;;4.63;1.80;;;;;;;7.13;100.00;101245.88;5173827;27;20269;-84
2022/01/18 10:30:14;;;;;;;9.07;2.30;;;;;;;7.22;100.00;101238.72;5172890;27;20223;-83
2022/01/18 10:32:43;;;;;;;4.97;1.90;;;;;;;7.25;100.00;101228.16;5171128;27;20196;-83
2022/01/18 10:35:12;;;;;;;3.93;1.70;;;;;;;7.34;100.00;101235.91;5174055;27;20185;-84
2022/01/18 10:37:43;;;;;;;5.13;2.27;;;;;;;7.21;100.00;101234.34;5174550;27;20253;-84
2022/01/18 10:40:16;;;;;;;6.77;2.30;;;;;;;7.21;100.00;101234.34;5176319;27;20225;-84
2022/01/18 10:42:48;;;;;;;6.90;2.67;;;;;;;7.32;100.00;101227.13;5173747;27;20196;-84
2022/01/18 10:45:23;;;;;;;7.93;2.60;;;;;;;7.38;100.00;101225.25;5173014;27;20189;-84
2022/01/18 10:47:57;;;;;;;5.83;2.57;;;;;;;7.18;100.00;101216.84;5117993;28;20198;-84
2022/01/18 10:50:26;;;;;;;7.40;2.40;;;;;;;7.05;100.00;101221.44;5116147;28;20193;-84
2022/01/18 10:52:54;;;;;;;5.70;2.73;;;;;;;7.06;100.00;101222.31;5119896;28;20224;-83
2022/01/18 10:55:25;;;;;;;6.53;2.70;;;;;;;7.06;100.00;101222.31;5084037;28;20191;-84
2022/01/18 10:57:54;;;;;;;8.87;3.53;;;;;;;7.00;100.00;101215.38;5112756;28;20191;-85
2022/01/18 11:00:27;;;;;;;5.17;3.30;;;;;;;7.12;100.00;101216.94;5103570;28;20297;-84
2022/01/18 11:02:56;;;;;;;6.47;3.30;;;;;;;7.13;100.00;101213.38;5103720;28;20239;-84
2022/01/18 11:05:27;;;;;;;8.27;3.40;;;;;;;7.17;100.00;101218.59;5124385;27;20253;-85
2022/01/18 11:07:56;;;;;;;6.47;3.20;;;;;;;7.27;100.00;101208.78;5172429;27;20203;-82
2022/01/18 11:10:31;;;;;;;10.37;3.23;;;;;;;7.27;100.00;101208.78;5176242;27;20192;-85
2022/01/18 11:13:23;;;;;;;6.20;2.93;;;;;;;7.44;100.00;101201.44;5176938;27;20196;-83
2022/01/18 11:16:03;;;;;;;4.30;2.43;;;;;;;7.24;100.00;101194.75;5167946;27;20204;-82
2022/01/18 11:18:36;;;;;;;3.47;2.23;;;;;;;7.30;100.00;101190.25;5171487;27;20208;-82
2022/01/18 11:21:07;;;;;;;4.63;2.10;;;;;;;7.28;100.00;101191.19;5175921;27;20273;-83
2022/01/18 11:23:36;;;;;;;4.73;2.20;;;;;;;7.40;100.00;101191.81;5173102;27;20189;-83
2022/01/18 11:26:05;;;;;;;5.17;2.37;;;;;;;7.31;100.00;101185.84;5173143;27;20206;-83
2022/01/18 11:28:36;;;;;;;3.13;2.33;;;;;;;7.17;100.00;101184.34;5169359;27;20213;-83
2022/01/18 11:31:10;;;;;;;5.17;2.20;;;;;;;7.23;100.00;101180.72;5154428;27;20242;-83
2022/01/18 11:33:50;;;;;;;3.23;2.13;;;;;;;7.40;100.00;101183.06;5171561;27;20220;-83
2022/01/18 11:36:24;;;;;;;6.60;2.40;;;;;;;7.43;100.00;101175.06;5174335;27;20191;-83
2022/01/18 11:38:56;;;;;;;3.50;2.50;;;;;;;7.50;100.00;101179.34;5173673;27;20184;-83
2022/01/18 11:41:26;;;;;;;8.53;2.27;;;;;;;-144.59;100.00;101179.34;5180445;27;20208;-83
2022/01/18 11:43:56;;;;;;;4.13;2.33;;;;;;;7.51;100.00;101175.81;5177474;27;20197;-83
2022/01/18 11:46:28;;;;;;;7.67;2.03;;;;;;;7.36;100.00;101174.34;5172774;27;20284;-83
2022/01/18 11:49:01;;;;;;;5.77;2.00;;;;;;;7.41;100.00;101174.25;5178897;27;20277;-82
2022/01/18 11:51:38;;;;;;;5.20;1.80;;;;;;;7.52;100.00;101168.75;5172262;27;20196;-83
2022/01/18 11:54:28;;;;;;;3.17;1.60;;;;;;;7.61;100.00;101180.00;5180045;27;20186;-82
2022/01/18 11:56:57;;;;;;;2.67;1.70;;;;;;;7.57;100.00;101174.81;5177110;27;20200;-83
2022/01/18 11:59:35;;;;;;;2.23;1.57;;;;;;;7.57;100.00;101174.81;5173152;27;20189;-82
2022/01/18 12:02:05;;;;;;;2.43;1.60;;;;;;;7.75;100.00;101180.63;5176296;27;20238;-83
2022/01/18 12:05:13;;;;;;;4.03;1.50;;;;;;;7.76;100.00;101176.22;5175477;27;20200;-83
2022/01/18 12:07:55;;;;;;;3.47;1.53;;;;;;;7.62;100.00;101168.53;5171617;27;20203;-83
2022/01/18 12:10:47;;;;;;;4.93;1.40;;;;;;;7.60;100.00;101162.44;5173294;27;20273;-82
2022/01/18 12:13:26;;;;;;;2.30;1.57;;;;;;;7.55;100.00;101161.69;5179654;27;20192;-83
2022/01/18 12:15:57;;;;;;;3.27;1.40;;;;;;;7.55;100.00;101164.31;5176576;27;20189;-82
2022/01/18 12:18:30;;;;;;;3.73;1.40;;;;;;;7.62;100.00;101163.28;5169571;27;20207;-82
2022/01/18 12:21:00;;;;;;;3.43;1.93;;;;;;;7.62;100.00;101151.84;5179467;27;20243;-82
2022/01/18 12:23:40;;;;;;;5.13;2.10;;;;;;;7.62;100.00;101151.84;5173330;27;20193;-83
2022/01/18 12:26:16;;;;;;;5.37;2.40;;;;;;;7.68;100.00;101152.63;5175610;27;20185;-82
2022/01/18 12:29:19;;;;;;;3.47;1.70;;;;;;;7.70;100.00;101148.16;5171741;27;20665;-83
2022/01/18 12:32:06;;;;;;;3.27;1.70;;;;;;;7.65;100.00;101149.19;5175989;27;20220;-82